Time;durP1;ratioP1;P1;durP2;ratioP2;P2;SDS_P1;SDS_P2;PMS_P1;PMS_P2;Temp;Humidity;BMP_temperature;BMP_pressure;BME280_temperature;BME280_humidity;BME280_pressure;Samples;Min_cycle;Max_cycle;Signal;HPM_P1;HPM_P2
2021/05/29 00:02:08;;;;;;;4.55;1.80;;;;;;;10.26;76.58;99326.50;4991950;28;20022;-67
2021/05/29 00:04:33;;;;;;;2.65;1.80;;;;;;;10.37;76.18;99336.84;4990317;28;20084;-67
2021/05/29 00:06:58;;;;;;;3.35;1.58;;;;;;;10.43;76.01;99332.59;4988962;28;20019;-67
2021/05/29 00:09:24;;;;;;;4.47;2.00;;;;;;;10.42;76.22;99326.31;4993267;28;20431;-67
2021/05/29 00:11:49;;;;;;;4.15;2.20;;;;;;;10.44;77.05;99328.84;4993298;28;20027;-67
2021/05/29 00:14:15;;;;;;;4.93;1.98;;;;;;;10.41;77.01;99331.94;4992022;28;20535;-67
2021/05/29 00:16:40;;;;;;;4.70;2.63;;;;;;;10.39;77.01;99325.88;4992474;28;20041;-67
2021/05/29 00:19:05;;;;;;;2.17;1.60;;;;;;;10.37;76.79;99331.44;4991687;28;20081;-67
2021/05/29 00:21:30;;;;;;;3.10;2.10;;;;;;;10.59;76.24;99329.66;4973665;28;20035;-67
2021/05/29 00:23:56;;;;;;;3.15;1.67;;;;;;;10.74;75.63;99326.88;4974104;28;20488;-67
2021/05/29 00:26:21;;;;;;;3.28;1.58;;;;;;;10.68;75.35;99328.47;5007887;28;20441;-67
2021/05/29 00:28:47;;;;;;;1.95;1.60;;;;;;;10.63;75.57;99322.81;4992009;28;20034;-67
2021/05/29 00:31:13;;;;;;;2.50;1.90;;;;;;;10.51;76.64;99308.13;4992373;28;20022;-68
2021/05/29 00:33:38;;;;;;;2.35;1.90;;;;;;;10.46;76.67;99321.38;4991066;28;20062;-68
2021/05/29 00:36:04;;;;;;;2.63;1.80;;;;;;;10.31;77.00;99322.22;4992822;28;20065;-67
2021/05/29 00:38:30;;;;;;;3.90;1.77;;;;;;;10.46;76.64;99324.91;4989849;28;20401;-68
2021/05/29 00:40:55;;;;;;;3.88;2.13;;;;;;;10.47;76.48;99304.09;4991123;28;20036;-68
2021/05/29 00:43:21;;;;;;;2.92;1.95;;;;;;;10.40;76.93;99312.16;4988548;28;20034;-66
2021/05/29 00:45:48;;;;;;;2.67;1.83;;;;;;;10.40;77.05;99303.19;4991042;28;20023;-66
2021/05/29 00:48:13;;;;;;;3.00;1.80;;;;;;;10.35;77.87;99300.19;4993065;28;20058;-67
2021/05/29 00:50:47;;;;;;;3.22;2.00;;;;;;;10.24;78.50;99296.97;4992298;28;20030;-67
2021/05/29 00:53:13;;;;;;;4.72;2.00;;;;;;;10.19;78.41;99296.69;4989756;28;20042;-67
2021/05/29 00:55:39;;;;;;;2.78;1.85;;;;;;;10.18;79.27;99302.28;4991755;28;20057;-66
2021/05/29 00:58:04;;;;;;;2.55;1.73;;;;;;;10.14;79.17;99293.72;4990282;28;20088;-67
2021/05/29 01:00:30;;;;;;;3.40;2.00;;;;;;;10.15;78.67;99305.34;4992589;28;20114;-67
2021/05/29 01:02:55;;;;;;;3.05;1.88;;;;;;;10.06;78.42;99291.94;4992037;28;20030;-69
2021/05/29 01:05:21;;;;;;;3.05;1.63;;;;;;;9.97;78.15;99276.84;4992494;28;20038;-66
2021/05/29 01:07:49;;;;;;;3.53;1.50;;;;;;;10.06;78.47;99307.28;4992579;28;20069;-66
2021/05/29 01:10:16;;;;;;;2.58;1.60;;;;;;;9.93;78.72;99299.88;4991838;28;20087;-66
2021/05/29 01:12:41;;;;;;;2.75;1.80;;;;;;;9.92;78.56;99302.75;4992498;28;20037;-66
2021/05/29 01:15:08;;;;;;;3.30;1.80;;;;;;;9.89;78.93;99306.66;4991876;28;20030;-66
2021/05/29 01:17:33;;;;;;;3.15;2.13;;;;;;;9.86;78.96;99309.75;4990385;28;20022;-67
2021/05/29 01:19:58;;;;;;;4.93;2.20;;;;;;;9.88;79.18;99311.25;4992704;28;20049;-67
2021/05/29 01:22:38;;;;;;;3.80;1.75;;;;;;;9.87;78.66;99312.25;4992077;28;20033;-66
2021/05/29 01:25:12;;;;;;;2.88;1.80;;;;;;;9.92;77.86;99305.44;4991478;28;20034;-66
2021/05/29 01:27:38;;;;;;;2.53;1.50;;;;;;;9.94;77.43;99311.53;4989340;28;20030;-66
2021/05/29 01:30:05;;;;;;;2.72;1.60;;;;;;;9.94;76.94;99320.47;4993752;28;20399;-67
2021/05/29 01:32:33;;;;;;;1.65;1.30;;;;;;;10.02;77.04;99316.81;4993532;28;20034;-67
2021/05/29 01:35:00;;;;;;;4.15;1.50;;;;;;;10.10;76.48;99309.44;4994033;28;20661;-67
2021/05/29 01:37:26;;;;;;;3.40;1.40;;;;;;;10.18;76.02;99322.03;4994222;28;20464;-67
2021/05/29 01:39:52;;;;;;;2.00;1.42;;;;;;;10.12;76.33;99306.56;4992247;28;20088;-66
2021/05/29 01:42:19;;;;;;;2.90;1.65;;;;;;;10.24;75.98;99321.28;4993569;28;20031;-66
2021/05/29 01:44:44;;;;;;;3.08;1.55;;;;;;;10.03;77.15;99307.69;4992666;28;20033;-66
2021/05/29 01:47:10;;;;;;;4.30;1.70;;;;;;;10.03;77.57;99319.34;4974263;28;20126;-67
2021/05/29 01:49:35;;;;;;;2.13;1.52;;;;;;;9.90;78.09;99321.00;4991140;28;20061;-67
2021/05/29 01:52:01;;;;;;;2.53;1.70;;;;;;;9.81;78.51;99315.69;4992276;28;20042;-66
2021/05/29 01:54:26;;;;;;;3.10;1.80;;;;;;;9.77;78.78;99305.44;4993715;28;20052;-66
2021/05/29 01:56:54;;;;;;;4.40;1.73;;;;;;;9.60;79.41;99308.31;4991488;28;20456;-66
2021/05/29 01:59:19;;;;;;;4.70;2.10;;;;;;;9.43;79.82;99302.25;4983268;28;20113;-66
2021/05/29 02:01:44;;;;;;;3.58;1.50;;;;;;;9.43;79.87;99313.06;4993096;28;20110;-66
2021/05/29 02:04:09;;;;;;;3.30;1.80;;;;;;;9.34;80.17;99313.31;4991437;28;20065;-66
2021/05/29 02:06:35;;;;;;;2.47;1.73;;;;;;;9.28;80.39;99325.69;4993616;28;20484;-66
2021/05/29 02:09:00;;;;;;;3.15;1.90;;;;;;;9.23;79.68;99308.38;5002113;28;20034;-67
2021/05/29 02:11:25;;;;;;;3.80;1.77;;;;;;;9.31;79.82;99325.31;5003803;28;20068;-67
2021/05/29 02:13:51;;;;;;;4.05;2.10;;;;;;;9.14;80.07;99307.56;5004026;28;20038;-67
2021/05/29 02:16:16;;;;;;;2.83;2.08;;;;;;;9.15;80.35;99318.19;5006104;28;20045;-67
2021/05/29 02:18:42;;;;;;;5.80;2.30;;;;;;;9.19;80.61;99316.81;5007030;28;20065;-66
2021/05/29 02:21:10;;;;;;;4.03;2.05;;;;;;;9.14;80.06;99323.78;5008988;28;20081;-67
2021/05/29 02:23:48;;;;;;;3.05;1.90;;;;;;;8.99;80.59;99311.06;5007936;28;20030;-67
2021/05/29 02:26:19;;;;;;;2.50;1.83;;;;;;;8.99;81.03;99329.97;5006199;28;20022;-67
2021/05/29 02:28:49;;;;;;;3.15;2.22;;;;;;;8.92;81.78;99320.06;5006943;28;20088;-67
2021/05/29 02:31:15;;;;;;;3.67;2.53;;;;;;;8.95;81.98;99323.25;5007960;28;20041;-67
2021/05/29 02:33:41;;;;;;;3.42;1.98;;;;;;;8.81;81.87;99323.19;5007197;28;20117;-66
2021/05/29 02:36:07;;;;;;;3.38;2.35;;;;;;;8.80;82.03;99322.34;5007267;28;20030;-66
2021/05/29 02:38:34;;;;;;;4.00;2.70;;;;;;;8.80;82.04;99314.25;5007370;28;20590;-67
2021/05/29 02:41:00;;;;;;;7.07;2.50;;;;;;;8.65;82.51;99324.16;5007090;28;20113;-67
2021/05/29 02:43:26;;;;;;;3.80;2.08;;;;;;;8.62;82.73;99324.47;5007148;28;20109;-67
2021/05/29 02:45:52;;;;;;;3.80;2.55;;;;;;;8.54;83.09;99330.75;5003514;28;20515;-67
2021/05/29 02:48:18;;;;;;;3.92;2.38;;;;;;;8.29;83.68;99303.06;5007173;28;20034;-66
2021/05/29 02:50:43;;;;;;;4.38;2.60;;;;;;;8.25;83.76;99316.06;5006104;28;20037;-67
2021/05/29 02:53:11;;;;;;;5.28;2.50;;;;;;;8.12;84.09;99321.16;5006996;28;20094;-67
2021/05/29 02:55:37;;;;;;;4.25;2.17;;;;;;;8.00;85.02;99312.63;5007788;28;20033;-67
2021/05/29 02:58:04;;;;;;;2.33;1.92;;;;;;;7.99;85.45;99316.34;4993671;28;20022;-66
2021/05/29 03:00:31;;;;;;;7.85;2.30;;;;;;;8.03;84.94;99325.75;4994944;28;20030;-67
2021/05/29 03:02:57;;;;;;;6.30;2.40;;;;;;;8.01;84.18;99313.47;4995822;28;20029;-67
2021/05/29 03:05:23;;;;;;;2.75;2.05;;;;;;;8.11;84.27;99333.81;5005818;28;20500;-67
2021/05/29 03:07:51;;;;;;;4.60;1.60;;;;;;;8.13;83.65;99328.25;5002849;28;20030;-67
2021/05/29 03:10:17;;;;;;;5.22;1.77;;;;;;;8.15;84.02;99341.53;5006766;28;20061;-66
2021/05/29 03:12:43;;;;;;;3.97;1.75;;;;;;;8.03;83.66;99322.22;5005203;28;20117;-67
2021/05/29 03:15:14;;;;;;;3.70;1.77;;;;;;;8.37;82.99;99348.03;5006123;28;20511;-68
2021/05/29 03:17:40;;;;;;;4.00;1.77;;;;;;;8.20;82.58;99341.84;5005730;28;20025;-67
2021/05/29 03:20:08;;;;;;;6.22;2.25;;;;;;;8.27;82.78;99340.13;5008302;28;20032;-67
2021/05/29 03:22:33;;;;;;;4.22;2.13;;;;;;;8.37;82.40;99343.47;5008696;28;20033;-68
2021/05/29 03:24:59;;;;;;;3.08;2.15;;;;;;;8.43;82.57;99350.03;5004494;28;20030;-67
2021/05/29 03:27:25;;;;;;;2.53;2.08;;;;;;;8.30;82.96;99356.78;4991176;28;20053;-67
2021/05/29 03:29:52;;;;;;;6.18;2.17;;;;;;;8.19;83.36;99342.88;4993131;28;20101;-67
2021/05/29 03:32:17;;;;;;;3.70;2.25;;;;;;;8.07;83.84;99354.03;4992873;28;20026;-67
2021/05/29 03:34:43;;;;;;;5.90;2.97;;;;;;;7.90;84.27;99342.47;4993829;28;20085;-67
2021/05/29 03:37:08;;;;;;;3.63;2.55;;;;;;;7.67;85.09;99338.81;4992268;28;20026;-68
2021/05/29 03:39:35;;;;;;;6.50;2.30;;;;;;;7.73;85.77;99356.13;4988344;28;20030;-68
2021/05/29 03:42:00;;;;;;;2.58;2.38;;;;;;;7.68;86.01;99348.59;4993179;28;20061;-68
2021/05/29 03:44:26;;;;;;;3.33;2.35;;;;;;;7.72;85.58;99349.91;4993264;28;20539;-68
2021/05/29 03:46:51;;;;;;;3.10;2.40;;;;;;;7.82;85.70;99360.50;4992214;28;20192;-67
2021/05/29 03:49:16;;;;;;;2.85;2.38;;;;;;;7.82;85.66;99360.50;4992344;28;20128;-67
2021/05/29 03:51:42;;;;;;;6.40;2.45;;;;;;;7.84;85.27;99369.25;4992956;28;20041;-67
2021/05/29 03:54:07;;;;;;;2.78;2.22;;;;;;;7.90;85.30;99373.94;4991754;28;20037;-68
2021/05/29 03:56:32;;;;;;;6.78;2.20;;;;;;;8.04;84.78;99375.09;4975392;28;20390;-68
2021/05/29 03:58:58;;;;;;;3.28;2.42;;;;;;;8.13;83.90;99372.19;4990431;28;20033;-68
2021/05/29 04:01:23;;;;;;;3.90;2.28;;;;;;;8.19;83.44;99362.56;4993427;28;20033;-67
2021/05/29 04:03:48;;;;;;;4.22;2.30;;;;;;;8.29;83.04;99379.38;4976335;28;20047;-69
2021/05/29 04:06:14;;;;;;;5.10;2.80;;;;;;;8.31;83.03;99376.53;4990946;28;20045;-68
2021/05/29 04:08:40;;;;;;;8.68;2.58;;;;;;;8.33;82.74;99375.34;4988616;28;20092;-67
2021/05/29 04:11:05;;;;;;;3.05;2.17;;;;;;;8.38;82.09;99380.19;4992150;28;20034;-68
2021/05/29 04:13:31;;;;;;;3.80;2.30;;;;;;;8.33;82.45;99380.72;4991314;28;20026;-68
2021/05/29 04:15:56;;;;;;;3.53;2.42;;;;;;;8.24;82.71;99368.28;4993056;28;20060;-67
2021/05/29 04:18:21;;;;;;;3.42;2.28;;;;;;;8.09;82.69;99353.84;4992450;28;20046;-67
2021/05/29 04:20:46;;;;;;;4.72;2.10;;;;;;;8.24;82.96;99375.53;4993130;28;20026;-67
2021/05/29 04:23:12;;;;;;;4.07;2.50;;;;;;;8.30;82.39;99364.03;4991892;28;20391;-68
2021/05/29 04:25:39;;;;;;;3.15;2.28;;;;;;;8.43;82.51;99377.00;4979665;28;20030;-67
2021/05/29 04:28:04;;;;;;;5.25;2.38;;;;;;;8.52;81.85;99386.75;4993087;28;20472;-68
2021/05/29 04:30:30;;;;;;;4.75;1.88;;;;;;;8.52;81.78;99376.78;4992808;28;20049;-67
2021/05/29 04:32:56;;;;;;;6.10;2.58;;;;;;;8.61;81.57;99376.75;4991120;28;20087;-68
2021/05/29 04:35:22;;;;;;;3.13;2.30;;;;;;;8.70;81.22;99381.09;4989966;28;20058;-73
2021/05/29 04:37:49;;;;;;;2.55;2.00;;;;;;;8.68;80.77;99377.72;4989268;28;20646;-74
2021/05/29 04:40:16;;;;;;;4.57;2.30;;;;;;;8.74;80.81;99382.41;4988636;28;20027;-75
2021/05/29 04:42:42;;;;;;;3.92;2.40;;;;;;;8.86;80.27;99380.16;4987039;28;20459;-75
2021/05/29 04:45:12;;;;;;;4.63;2.38;;;;;;;8.99;79.62;99397.44;4996984;28;20682;-77
2021/05/29 04:47:38;;;;;;;;;;;;;;;9.04;79.67;99401.44;4998076;28;20073;-75
2021/05/29 04:50:06;;;;;;;3.85;1.98;;;;;;;9.10;79.53;99387.25;4998650;28;19913;-74
2021/05/29 04:52:32;;;;;;;3.83;2.17;;;;;;;9.33;78.89;99392.66;4992030;28;20026;-70
2021/05/29 04:54:57;;;;;;;3.38;2.30;;;;;;;9.34;78.72;99389.75;4991748;28;20042;-72
2021/05/29 04:57:23;;;;;;;4.45;2.42;;;;;;;9.46;78.02;99379.38;4984849;28;20034;-72
2021/05/29 04:59:48;;;;;;;3.47;2.30;;;;;;;9.58;77.59;99404.09;4991713;28;20117;-70
2021/05/29 05:02:14;;;;;;;3.15;2.33;;;;;;;9.53;77.54;99392.97;4989636;28;20062;-69
2021/05/29 05:04:39;;;;;;;2.85;2.25;;;;;;;9.70;77.25;99397.22;4990989;28;20030;-67
2021/05/29 05:07:04;;;;;;;4.97;2.90;;;;;;;9.72;76.82;99388.91;4982871;28;20045;-72
2021/05/29 05:09:30;;;;;;;3.85;2.50;;;;;;;9.61;77.29;99379.41;4984227;28;20041;-73
2021/05/29 05:11:55;;;;;;;3.78;2.20;;;;;;;9.75;77.34;99394.81;4994766;28;20022;-74
2021/05/29 05:14:20;;;;;;;5.82;2.72;;;;;;;9.90;76.42;99384.00;5002531;28;20480;-74
2021/05/29 05:16:46;;;;;;;5.25;2.70;;;;;;;10.15;75.95;99387.31;4999205;28;20078;-73
2021/05/29 05:19:12;;;;;;;4.10;2.65;;;;;;;10.33;75.41;99399.66;5001132;28;20038;-73
2021/05/29 05:21:37;;;;;;;5.15;2.90;;;;;;;10.41;74.86;99394.97;4992325;28;20030;-67
2021/05/29 05:24:03;;;;;;;6.22;3.25;;;;;;;10.52;74.89;99399.91;4987422;28;20096;-70
2021/05/29 05:26:28;;;;;;;5.00;2.75;;;;;;;10.60;74.24;99385.44;4980460;28;20081;-69
2021/05/29 05:28:54;;;;;;;5.38;2.83;;;;;;;10.84;73.76;99392.38;4985770;28;20038;-69
2021/05/29 05:31:19;;;;;;;3.65;2.50;;;;;;;11.11;72.55;99409.78;4972910;28;20480;-65
2021/05/29 05:33:46;;;;;;;4.88;2.63;;;;;;;11.25;72.68;99401.78;4976302;28;20314;-66
2021/05/29 05:36:13;;;;;;;3.60;2.67;;;;;;;11.60;72.04;99403.56;4986236;28;20516;-67
2021/05/29 05:38:40;;;;;;;3.63;2.22;;;;;;;11.74;71.53;99407.25;4980627;28;20388;-67
2021/05/29 05:41:07;;;;;;;3.28;2.25;;;;;;;11.93;71.51;99402.19;5010073;23;20106;-66
2021/05/29 05:43:33;;;;;;;4.43;2.17;;;;;;;12.14;70.75;99404.84;4963720;28;20041;-66
2021/05/29 05:45:58;;;;;;;4.47;2.20;;;;;;;12.28;69.72;99406.59;4965045;28;20035;-70
2021/05/29 05:48:24;;;;;;;5.68;1.77;;;;;;;12.40;69.12;99408.75;4966797;28;20054;-68
2021/05/29 05:50:54;;;;;;;3.75;2.33;;;;;;;12.69;68.69;99402.22;4973181;28;20396;-73
2021/05/29 05:53:24;;;;;;;2.13;1.73;;;;;;;13.16;68.14;99414.91;4959551;28;20106;-66
2021/05/29 05:55:54;;;;;;;4.90;1.88;;;;;;;13.43;68.05;99404.13;4957314;28;20488;-66
2021/05/29 05:58:19;;;;;;;3.30;1.98;;;;;;;13.85;67.23;99415.66;4967123;28;20404;-67
2021/05/29 06:00:44;;;;;;;3.83;1.98;;;;;;;14.03;66.10;99409.56;4973036;28;20031;-67
2021/05/29 06:03:10;;;;;;;3.25;2.03;;;;;;;14.28;64.89;99417.06;4959148;28;20035;-73
2021/05/29 06:05:35;;;;;;;5.15;2.00;;;;;;;14.42;64.20;99421.44;4957937;28;20019;-69
2021/05/29 06:08:00;;;;;;;4.30;1.95;;;;;;;14.63;63.11;99421.19;4959384;28;20023;-68
2021/05/29 06:10:25;;;;;;;3.35;1.90;;;;;;;14.89;62.12;99417.53;4972663;28;20030;-68
2021/05/29 06:12:52;;;;;;;4.72;1.52;;;;;;;15.01;62.01;99420.44;4975799;28;20035;-69
2021/05/29 06:20:48;;;;;;;2.30;1.70;;;;;;;15.40;60.50;99414.94;4963392;28;20081;-69
2021/05/29 06:23:14;;;;;;;3.58;1.55;;;;;;;15.40;59.93;99418.50;4963981;28;20019;-69
2021/05/29 06:25:43;;;;;;;3.38;1.70;;;;;;;15.64;60.33;99416.91;4960798;28;20070;-68
2021/05/29 06:28:08;;;;;;;3.33;2.10;;;;;;;15.83;59.29;99414.28;4961808;28;20447;-69
2021/05/29 06:30:35;;;;;;;4.63;1.80;;;;;;;16.05;59.16;99417.44;4963658;28;20042;-69
2021/05/29 06:33:00;;;;;;;2.03;1.50;;;;;;;16.34;58.56;99421.34;4960960;28;20031;-69
2021/05/29 06:35:26;;;;;;;3.13;1.50;;;;;;;16.47;56.05;99417.63;4965075;28;20081;-69
2021/05/29 06:37:51;;;;;;;3.88;1.38;;;;;;;16.82;53.79;99406.94;4961766;28;20019;-69
2021/05/29 06:40:17;;;;;;;4.53;1.67;;;;;;;17.48;52.40;99424.38;4969760;28;20031;-68
2021/05/29 06:42:42;;;;;;;3.05;1.48;;;;;;;17.39;53.32;99415.66;4963083;28;20461;-68
2021/05/29 06:45:08;;;;;;;2.83;1.70;;;;;;;17.73;52.41;99430.50;4961700;28;20513;-68
2021/05/29 06:47:34;;;;;;;2.92;1.65;;;;;;;18.47;50.44;99424.63;4967231;28;20027;-68
2021/05/29 06:50:00;;;;;;;2.55;1.40;;;;;;;19.61;48.86;99417.59;4963838;28;20035;-71
2021/05/29 06:52:28;;;;;;;3.17;1.50;;;;;;;20.38;46.03;99416.94;4958279;28;20031;-71
2021/05/29 07:00:09;;;;;;;4.57;1.30;;;;;;;25.00;38.57;99413.72;4959534;28;20034;-69
2021/05/29 07:02:34;;;;;;;1.90;1.20;;;;;;;26.22;36.06;99400.16;4959122;28;20023;-65
2021/05/29 07:05:01;;;;;;;3.05;1.30;;;;;;;25.63;36.20;99401.22;4956552;28;20126;-72
2021/05/29 07:07:27;;;;;;;2.17;1.10;;;;;;;27.45;34.66;99413.44;4973134;28;20081;-72
2021/05/29 07:09:53;;;;;;;2.72;1.20;;;;;;;28.13;33.11;99406.56;4963827;28;20202;-70
2021/05/29 07:12:18;;;;;;;1.70;1.10;;;;;;;27.88;33.83;99402.28;4967201;28;20096;-70
2021/05/29 07:14:43;;;;;;;1.55;1.10;;;;;;;28.95;32.32;99402.25;4974531;28;20114;-70
2021/05/29 07:17:09;;;;;;;2.17;0.98;;;;;;;29.86;31.18;99401.34;4976852;28;20022;-74
2021/05/29 07:19:35;;;;;;;1.73;1.20;;;;;;;29.01;32.00;99401.00;4977197;28;20027;-73
2021/05/29 07:22:00;;;;;;;1.45;0.90;;;;;;;29.12;30.40;99392.47;4978062;28;20031;-73
2021/05/29 07:24:26;;;;;;;1.05;0.90;;;;;;;30.32;29.15;99399.38;4962713;28;20054;-68
2021/05/29 07:26:53;;;;;;;3.00;1.10;;;;;;;30.43;30.01;99388.75;4956853;28;20035;-69
2021/05/29 07:29:18;;;;;;;1.00;0.90;;;;;;;30.71;30.20;99395.78;4956669;28;20078;-74
2021/05/29 07:31:44;;;;;;;1.50;1.00;;;;;;;30.52;29.37;99400.78;4955525;28;20027;-73
2021/05/29 07:34:11;;;;;;;1.55;1.17;;;;;;;29.89;29.92;99385.94;4956681;28;20046;-73
2021/05/29 07:36:36;;;;;;;3.00;1.30;;;;;;;30.28;29.20;99390.78;4964469;28;20486;-73
2021/05/29 07:39:03;;;;;;;2.03;1.20;;;;;;;29.13;29.95;99394.91;4970492;28;20166;-72
2021/05/29 07:41:28;;;;;;;1.92;1.00;;;;;;;29.62;30.25;99389.63;4962393;28;20059;-72
2021/05/29 07:43:54;;;;;;;2.25;1.00;;;;;;;30.19;29.13;99387.13;4957397;28;20023;-72
2021/05/29 07:46:19;;;;;;;1.05;0.80;;;;;;;30.88;28.38;99397.00;4963940;28;20122;-73
2021/05/29 07:48:45;;;;;;;2.40;1.10;;;;;;;30.92;28.53;99384.03;4965142;28;20039;-73
2021/05/29 07:51:11;;;;;;;1.30;0.90;;;;;;;31.88;27.17;99393.34;4973508;28;20105;-73
2021/05/29 07:53:38;;;;;;;2.03;0.80;;;;;;;31.75;26.70;99397.16;4965683;28;20054;-71
2021/05/29 07:56:07;;;;;;;0.95;0.73;;;;;;;32.00;25.41;99395.50;4954642;28;20062;-72
2021/05/29 07:58:32;;;;;;;1.80;0.98;;;;;;;31.36;26.58;99390.50;4967722;28;20119;-72
2021/05/29 08:00:58;;;;;;;2.00;1.02;;;;;;;32.15;27.15;99388.53;4956094;28;20043;-71
2021/05/29 08:03:26;;;;;;;1.17;0.90;;;;;;;31.73;28.32;99391.03;4962681;28;20058;-70
2021/05/29 08:05:53;;;;;;;1.77;1.10;;;;;;;30.41;27.48;99394.66;4969097;28;20757;-68
2021/05/29 08:08:19;;;;;;;3.17;1.00;;;;;;;29.23;29.83;99379.94;4965445;28;20023;-69
2021/05/29 08:10:48;;;;;;;1.13;1.00;;;;;;;30.93;28.45;99394.88;4962798;28;20039;-69
2021/05/29 08:13:14;;;;;;;1.98;1.00;;;;;;;31.53;27.44;99390.56;4959437;28;20023;-73
2021/05/29 08:15:39;;;;;;;2.63;1.42;;;;;;;31.35;27.09;99388.88;4971454;28;20038;-70
2021/05/29 08:18:05;;;;;;;1.65;0.88;;;;;;;32.31;26.84;99386.88;4954951;28;20027;-73
2021/05/29 08:20:31;;;;;;;1.25;0.88;;;;;;;32.65;26.82;99390.75;4953409;28;20070;-69
2021/05/29 08:22:56;;;;;;;1.67;0.80;;;;;;;33.21;24.87;99374.63;4959548;28;20035;-73
2021/05/29 08:25:22;;;;;;;1.98;1.00;;;;;;;32.92;26.10;99387.47;4966140;28;20539;-73
2021/05/29 08:27:47;;;;;;;1.58;1.00;;;;;;;34.52;24.76;99384.66;4953879;28;20035;-73
2021/05/29 08:30:13;;;;;;;0.88;0.80;;;;;;;33.62;24.51;99384.25;4959234;28;20126;-69
2021/05/29 08:32:40;;;;;;;1.67;0.80;;;;;;;33.48;25.62;99395.69;4976159;28;20034;-73
2021/05/29 08:35:07;;;;;;;1.35;0.90;;;;;;;32.06;25.53;99383.78;4966035;28;20033;-71
2021/05/29 08:37:32;;;;;;;2.25;0.95;;;;;;;31.71;26.36;99384.97;4968171;28;20429;-73
2021/05/29 08:39:58;;;;;;;1.75;0.73;;;;;;;33.50;25.53;99387.75;4956204;28;20089;-69
2021/05/29 08:42:23;;;;;;;2.17;1.10;;;;;;;34.88;24.29;99384.69;4965291;28;20067;-70
2021/05/29 08:44:48;;;;;;;2.08;0.98;;;;;;;33.74;25.14;99383.47;4963622;28;20392;-70
2021/05/29 08:47:14;;;;;;;1.33;0.88;;;;;;;34.12;24.46;99386.09;4971421;28;20022;-75
2021/05/29 08:49:39;;;;;;;2.25;1.10;;;;;;;34.16;23.04;99387.03;4956450;28;20464;-68
2021/05/29 08:52:07;;;;;;;2.15;0.90;;;;;;;34.20;22.08;99373.94;4955128;28;20031;-70
2021/05/29 08:54:33;;;;;;;3.05;1.13;;;;;;;33.01;23.37;99389.38;4966293;28;20031;-70
2021/05/29 08:56:58;;;;;;;1.42;0.80;;;;;;;34.35;23.16;99383.69;4971388;28;20681;-70
2021/05/29 08:59:24;;;;;;;2.65;1.17;;;;;;;34.40;22.00;99391.06;4959930;28;20385;-69
2021/05/29 09:01:51;;;;;;;1.50;0.63;;;;;;;34.01;22.26;99385.69;4952596;28;20469;-68
2021/05/29 09:04:17;;;;;;;0.82;0.60;;;;;;;33.45;22.76;99395.56;4953943;28;20090;-68
2021/05/29 09:06:44;;;;;;;3.17;0.75;;;;;;;33.22;22.55;99381.84;4953440;28;20027;-69
2021/05/29 09:09:14;;;;;;;1.23;0.55;;;;;;;33.75;22.62;99387.94;4952376;28;20040;-68
2021/05/29 09:11:56;;;;;;;5.63;0.70;;;;;;;33.49;23.56;99388.94;4966749;28;20037;-68
2021/05/29 09:14:25;;;;;;;2.53;0.65;;;;;;;33.52;22.90;99395.84;4968356;28;20042;-68
2021/05/29 09:17:07;;;;;;;4.20;0.65;;;;;;;33.19;23.09;99382.53;4963886;28;20022;-69
2021/05/29 09:19:52;;;;;;;1.08;0.52;;;;;;;33.24;23.46;99387.94;4973318;28;20102;-68
2021/05/29 09:22:19;;;;;;;3.10;0.70;;;;;;;34.18;22.35;99383.88;4973252;28;20078;-67
2021/05/29 09:25:03;;;;;;;1.23;0.50;;;;;;;33.35;22.79;99394.81;4975480;28;20054;-69
2021/05/29 09:27:35;;;;;;;2.30;0.60;;;;;;;33.79;23.02;99400.91;4958080;28;20077;-68
2021/05/29 09:30:03;;;;;;;1.95;0.60;;;;;;;32.86;23.05;99388.81;4958495;28;20039;-69
2021/05/29 09:32:33;;;;;;;1.38;0.65;;;;;;;32.28;24.07;99391.16;4975557;28;20030;-68
2021/05/29 09:35:03;;;;;;;3.05;0.80;;;;;;;32.70;24.02;99405.38;4966289;28;20054;-68
2021/05/29 09:37:29;;;;;;;1.38;0.60;;;;;;;33.31;22.92;99407.88;4963304;28;20185;-69
2021/05/29 09:39:56;;;;;;;0.73;0.38;;;;;;;32.55;23.28;99396.72;4958605;28;20498;-68
2021/05/29 09:42:36;;;;;;;0.68;0.40;;;;;;;31.77;23.95;99406.84;4966308;28;20127;-68
2021/05/29 09:45:21;;;;;;;2.40;0.70;;;;;;;31.71;24.28;99413.78;4959739;28;20067;-67
2021/05/29 09:48:15;;;;;;;3.25;0.60;;;;;;;32.01;24.14;99409.16;4967750;28;20068;-69
2021/05/29 09:50:59;;;;;;;0.90;0.75;;;;;;;32.77;24.17;99410.44;4960337;28;20358;-69
2021/05/29 09:53:26;;;;;;;2.05;0.75;;;;;;;32.38;24.37;99403.97;4963203;28;20038;-68
2021/05/29 09:55:52;;;;;;;0.80;0.60;;;;;;;32.05;24.94;99409.34;4962827;28;20042;-70
2021/05/29 09:58:17;;;;;;;1.42;0.50;;;;;;;31.73;24.21;99403.09;4954830;28;20031;-70
2021/05/29 10:00:44;;;;;;;2.40;0.60;;;;;;;32.65;23.47;99397.16;4964693;28;20038;-70
2021/05/29 10:03:10;;;;;;;0.50;0.50;;;;;;;32.52;23.04;99396.22;4963583;28;20445;-69
2021/05/29 10:05:38;;;;;;;0.50;0.50;;;;;;;32.36;23.38;99402.66;4961988;28;20027;-68
2021/05/29 10:08:04;;;;;;;2.10;0.85;;;;;;;32.41;23.96;99406.13;4952588;28;20033;-68
2021/05/29 10:10:33;;;;;;;1.13;0.40;;;;;;;31.76;24.37;99407.19;4959564;28;20080;-70
2021/05/29 10:13:00;;;;;;;0.82;0.60;;;;;;;32.12;24.36;99401.22;4959708;28;20043;-68
2021/05/29 10:15:25;;;;;;;2.40;0.70;;;;;;;31.16;24.46;99408.75;4971747;28;20089;-69
2021/05/29 10:17:54;;;;;;;1.13;0.57;;;;;;;32.04;25.71;99402.06;4955792;28;20031;-69
2021/05/29 10:20:20;;;;;;;1.42;0.40;;;;;;;32.51;25.25;99397.41;4953374;29;20279;-69
2021/05/29 10:22:45;;;;;;;1.05;0.52;;;;;;;32.76;24.64;99403.22;4953711;28;20027;-69
2021/05/29 10:25:16;;;;;;;1.10;0.40;;;;;;;32.38;24.81;99405.94;4953687;28;20027;-70
2021/05/29 10:27:51;;;;;;;1.42;0.40;;;;;;;31.97;24.55;99382.19;4954130;28;20035;-69
2021/05/29 10:30:19;;;;;;;2.08;0.45;;;;;;;30.04;26.54;99407.03;4965383;28;20382;-69
2021/05/29 10:33:23;;;;;;;0.70;0.50;;;;;;;28.20;27.20;99411.75;4959374;28;20102;-68
2021/05/29 10:35:49;;;;;;;0.60;0.40;;;;;;;29.07;26.26;99412.06;4953522;28;20058;-68
2021/05/29 10:38:17;;;;;;;1.02;0.60;;;;;;;29.05;26.39;99404.84;4953550;28;20023;-68
2021/05/29 10:40:47;;;;;;;1.15;0.60;;;;;;;28.90;25.92;99396.78;4955088;28;20042;-66
2021/05/29 10:43:21;;;;;;;0.50;0.50;;;;;;;28.71;26.11;99409.97;4955147;28;20038;-68
2021/05/29 10:45:52;;;;;;;0.80;0.50;;;;;;;29.67;23.47;99406.28;4953464;28;20027;-68
2021/05/29 10:48:22;;;;;;;1.70;0.70;;;;;;;29.74;25.17;99401.09;4954224;28;20489;-69
2021/05/29 10:50:58;;;;;;;1.10;0.50;;;;;;;30.51;24.44;99405.53;4952762;28;20065;-68
2021/05/29 10:53:56;;;;;;;0.50;0.40;;;;;;;30.94;25.27;99401.28;4957370;28;20031;-69
2021/05/29 10:56:21;;;;;;;0.75;0.45;;;;;;;30.12;24.23;99409.06;4953515;28;20027;-70
2021/05/29 10:59:15;;;;;;;1.27;0.50;;;;;;;29.93;24.37;99410.09;4956387;28;20086;-69
2021/05/29 11:01:50;;;;;;;1.25;0.50;;;;;;;30.71;24.42;99406.13;4967699;28;20062;-69
2021/05/29 11:04:15;;;;;;;0.50;0.40;;;;;;;32.31;23.49;99392.47;4967817;28;20030;-69
2021/05/29 11:06:42;;;;;;;1.88;0.38;;;;;;;32.38;24.00;99386.34;4960369;28;20023;-70
2021/05/29 11:09:08;;;;;;;1.05;0.60;;;;;;;31.17;23.85;99400.03;4969050;28;20149;-69
2021/05/29 11:11:40;;;;;;;1.15;0.60;;;;;;;30.01;25.08;99400.13;4962352;28;20110;-69
2021/05/29 11:14:07;;;;;;;2.05;0.55;;;;;;;30.32;26.01;99399.38;4959701;28;20509;-68
2021/05/29 11:16:51;;;;;;;1.63;0.52;;;;;;;32.15;24.92;99394.16;4953046;28;20027;-69
2021/05/29 11:19:18;;;;;;;0.93;0.57;;;;;;;31.27;24.37;99392.50;4952008;28;20083;-70
2021/05/29 11:22:17;;;;;;;0.50;0.40;;;;;;;29.86;24.45;99390.16;4959375;28;20189;-69
2021/05/29 11:24:48;;;;;;;1.38;0.47;;;;;;;29.78;25.85;99388.16;4952593;28;20031;-69
2021/05/29 11:27:21;;;;;;;1.10;0.40;;;;;;;30.34;24.76;99389.53;4956833;28;20031;-68
2021/05/29 11:29:53;;;;;;;0.30;0.30;;;;;;;31.31;24.17;99385.09;4956423;28;20045;-69
2021/05/29 11:35:19;;;;;;;0.60;0.32;;;;;;;30.83;24.17;99385.97;4952970;28;20063;-69
2021/05/29 11:38:19;;;;;;;2.20;0.47;;;;;;;29.71;24.78;99387.75;4958798;28;20126;-68
2021/05/29 11:40:55;;;;;;;1.00;0.35;;;;;;;30.01;24.39;99379.78;4963662;28;20081;-68
2021/05/29 11:43:22;;;;;;;0.55;0.30;;;;;;;31.76;24.44;99384.81;4964202;23;20027;-69
2021/05/29 11:45:56;;;;;;;1.17;0.40;;;;;;;32.02;23.86;99368.03;5030780;28;20075;-68
2021/05/29 11:48:30;;;;;;;0.57;0.20;;;;;;;31.87;23.94;99380.50;5023406;28;20030;-64
2021/05/29 11:51:11;;;;;;;0.95;0.35;;;;;;;32.69;22.97;99369.28;5020926;28;20040;-63
2021/05/29 11:53:52;;;;;;;0.30;0.25;;;;;;;31.84;23.92;99367.19;5023277;28;20036;-64